createdAt,value
2024-05-09T00:00:00.946Z,11.81
2024-05-09T00:02:33.179Z,11.78
2024-05-09T00:05:04.927Z,11.77
2024-05-09T00:07:36.458Z,11.74
2024-05-09T00:10:14.480Z,11.68
2024-05-09T00:12:53.271Z,11.71
2024-05-09T00:15:24.444Z,11.72
2024-05-09T00:17:55.891Z,11.71
2024-05-09T00:20:35.306Z,11.65
2024-05-09T00:23:12.459Z,11.63
2024-05-09T00:25:45.501Z,11.62
2024-05-09T00:28:16.944Z,11.62
2024-05-09T00:30:51.833Z,11.42
2024-05-09T00:33:23.793Z,11.36
2024-05-09T00:35:55.162Z,11.35
2024-05-09T00:38:26.427Z,11.28
2024-05-09T00:40:57.823Z,11.24
2024-05-09T00:43:29.099Z,11.22
2024-05-09T00:46:01.708Z,11.18
2024-05-09T00:48:33.931Z,11.17
2024-05-09T00:51:06.534Z,11.15
2024-05-09T00:53:38.035Z,11.16
2024-05-09T00:56:11.351Z,11.04
2024-05-09T00:58:43.692Z,11.03
2024-05-09T01:01:18.039Z,10.97
2024-05-09T01:03:51.303Z,10.76
2024-05-09T01:06:23.513Z,10.77
2024-05-09T01:08:54.991Z,10.75
2024-05-09T01:11:33.428Z,10.74
2024-05-09T01:14:04.764Z,10.73
2024-05-09T01:16:36.198Z,10.68
2024-05-09T01:19:20.843Z,10.66
2024-05-09T01:21:52.287Z,10.54
2024-05-09T01:24:23.572Z,10.58
2024-05-09T01:26:58.261Z,10.55
2024-05-09T01:29:45.847Z,10.57
2024-05-09T01:32:20.054Z,10.57
2024-05-09T01:34:52.312Z,10.59
2024-05-09T01:37:26.100Z,10.45
2024-05-09T01:40:00.287Z,10.43
2024-05-09T01:42:34.464Z,10.35
2024-05-09T01:45:08.673Z,10.28
2024-05-09T01:47:39.975Z,10.14
2024-05-09T01:50:13.381Z,10.17
2024-05-09T01:52:47.578Z,10.28
2024-05-09T01:55:19.299Z,10.38
2024-05-09T01:57:50.601Z,10.41
2024-05-09T02:00:33.747Z,10.40
2024-05-09T02:03:15.682Z,10.28
2024-05-09T02:05:51.437Z,10.25
2024-05-09T02:08:22.315Z,10.18
2024-05-09T02:10:54.405Z,10.04
2024-05-09T02:13:25.689Z,9.88
2024-05-09T02:15:57.903Z,9.91
2024-05-09T02:18:29.178Z,9.76
2024-05-09T02:21:00.671Z,9.63
2024-05-09T02:23:32.329Z,9.54
2024-05-09T02:26:03.672Z,9.55
2024-05-09T02:28:34.858Z,9.48
2024-05-09T02:31:06.342Z,9.39
2024-05-09T02:33:38.007Z,9.25
2024-05-09T02:36:10.125Z,9.12
2024-05-09T02:38:41.688Z,9.08
2024-05-09T02:41:12.997Z,9.09
2024-05-09T02:43:44.369Z,9.12
2024-05-09T02:46:15.712Z,8.93
2024-05-09T02:48:47.135Z,8.84
2024-05-09T02:51:18.544Z,8.92
2024-05-09T02:53:49.674Z,8.89
2024-05-09T02:56:21.005Z,8.91
2024-05-09T02:58:52.214Z,8.91
2024-05-09T03:01:23.674Z,8.90
2024-05-09T03:03:54.987Z,8.90
2024-05-09T03:06:26.432Z,8.95
2024-05-09T03:08:57.640Z,8.86
2024-05-09T03:11:29.258Z,8.75
2024-05-09T03:14:00.805Z,8.80
2024-05-09T03:16:32.044Z,8.77
2024-05-09T03:19:03.462Z,8.76
2024-05-09T03:21:38.302Z,8.77
2024-05-09T03:24:11.295Z,8.77
2024-05-09T03:26:43.189Z,8.78
2024-05-09T03:29:14.467Z,8.80
2024-05-09T03:31:45.802Z,8.76
2024-05-09T03:34:17.310Z,8.78
2024-05-09T03:36:48.512Z,8.78
2024-05-09T03:39:20.038Z,8.79
2024-05-09T03:41:51.368Z,8.78
2024-05-09T03:44:22.659Z,8.84
2024-05-09T03:46:53.911Z,8.91
2024-05-09T03:49:25.624Z,8.83
2024-05-09T03:51:56.960Z,8.66
2024-05-09T03:54:28.480Z,8.61
2024-05-09T03:56:59.706Z,8.68
2024-05-09T03:59:31.203Z,8.65
2024-05-09T04:02:02.552Z,8.65
2024-05-09T04:04:34.001Z,8.65
2024-05-09T04:07:05.509Z,8.60
2024-05-09T04:09:36.923Z,8.68
2024-05-09T04:12:09.704Z,8.73
2024-05-09T04:14:42.737Z,8.75
2024-05-09T04:17:13.975Z,8.78
2024-05-09T04:19:45.259Z,8.84
2024-05-09T04:22:16.987Z,8.81
2024-05-09T04:24:49.316Z,8.92
2024-05-09T04:27:20.767Z,8.90
2024-05-09T04:29:51.904Z,8.87
2024-05-09T04:32:23.541Z,8.88
2024-05-09T04:34:54.834Z,9.07
2024-05-09T04:37:26.196Z,9.24
2024-05-09T04:39:57.862Z,9.31
2024-05-09T04:42:29.432Z,9.25
2024-05-09T04:45:00.665Z,9.26
2024-05-09T04:47:32.109Z,9.27
2024-05-09T04:50:03.668Z,9.47
2024-05-09T04:52:35.787Z,9.56
2024-05-09T04:55:08.155Z,9.64
2024-05-09T04:57:39.756Z,9.58
2024-05-09T05:00:14.988Z,9.63
2024-05-09T05:02:53.301Z,9.78
2024-05-09T05:05:24.828Z,9.86
2024-05-09T05:07:56.285Z,9.90
2024-05-09T05:10:33.832Z,9.96
2024-05-09T05:13:20.812Z,10.00
2024-05-09T05:15:56.928Z,10.10
2024-05-09T05:18:29.826Z,10.13
2024-05-09T05:21:01.339Z,10.23
2024-05-09T05:23:32.841Z,10.25
2024-05-09T05:26:04.344Z,10.13
2024-05-09T05:28:35.628Z,10.28
2024-05-09T05:31:06.993Z,10.42
2024-05-09T05:33:38.464Z,10.48
2024-05-09T05:36:11.450Z,10.57
2024-05-09T05:38:43.050Z,10.64
2024-05-09T05:41:14.702Z,10.78
2024-05-09T05:43:46.023Z,10.86
2024-05-09T05:46:17.323Z,10.90
2024-05-09T05:48:49.092Z,10.67
2024-05-09T05:51:20.620Z,10.57
2024-05-09T05:53:52.072Z,10.74
2024-05-09T05:56:23.405Z,10.83
2024-05-09T05:58:54.815Z,10.89
2024-05-09T06:01:26.350Z,11.02
2024-05-09T06:03:57.740Z,11.07
2024-05-09T06:06:29.102Z,11.02
2024-05-09T06:09:00.411Z,11.05
2024-05-09T06:11:32.059Z,11.12
2024-05-09T06:14:05.201Z,11.26
2024-05-09T06:16:36.501Z,11.37
2024-05-09T06:19:07.922Z,11.43
2024-05-09T06:21:39.244Z,11.57
2024-05-09T06:24:10.427Z,11.63
2024-05-09T06:26:46.150Z,11.76
2024-05-09T06:29:17.542Z,11.82
2024-05-09T06:31:48.909Z,11.86
2024-05-09T06:34:21.497Z,11.92
2024-05-09T06:36:51.598Z,11.97
2024-05-09T06:39:23.177Z,12.01
2024-05-09T06:41:54.386Z,11.99
2024-05-09T06:44:25.742Z,11.96
2024-05-09T06:46:59.759Z,11.89
2024-05-09T06:49:32.565Z,11.90
2024-05-09T06:52:04.359Z,12.01
2024-05-09T06:54:35.570Z,12.14
2024-05-09T06:57:07.526Z,12.26
2024-05-09T06:59:39.266Z,12.37
2024-05-09T07:02:10.910Z,12.42
2024-05-09T07:04:42.250Z,12.45
2024-05-09T07:07:13.618Z,12.56
2024-05-09T07:09:45.000Z,12.63
2024-05-09T07:12:16.431Z,12.65
2024-05-09T07:14:47.948Z,12.68
2024-05-09T07:17:19.993Z,12.77
2024-05-09T07:19:52.104Z,12.85
2024-05-09T07:22:25.157Z,12.90
2024-05-09T07:24:56.439Z,12.92
2024-05-09T07:27:28.793Z,12.95
2024-05-09T07:29:59.113Z,12.92
2024-05-09T07:32:30.630Z,12.97
2024-05-09T07:35:02.388Z,13.07
2024-05-09T07:37:33.688Z,13.18
2024-05-09T07:40:07.487Z,13.30
2024-05-09T07:42:39.053Z,13.41
2024-05-09T07:45:29.673Z,13.46
2024-05-09T07:52:32.656Z,13.58
2024-05-09T07:53:39.961Z,13.64
2024-05-09T07:56:18.559Z,13.62
2024-05-09T07:58:52.359Z,13.67
2024-05-09T08:01:27.605Z,13.76
2024-05-09T08:03:59.917Z,13.83
2024-05-09T08:06:31.308Z,13.98
2024-05-09T08:09:08.037Z,14.01
2024-05-09T08:11:42.692Z,14.01
2024-05-09T08:14:14.234Z,14.11
2024-05-09T08:16:46.205Z,14.31
2024-05-09T08:19:19.779Z,14.52
2024-05-09T08:21:53.049Z,14.71
2024-05-09T08:24:24.830Z,14.84
2024-05-09T08:26:56.353Z,14.97
2024-05-09T08:29:27.782Z,15.03
2024-05-09T08:31:59.424Z,15.10
2024-05-09T08:34:31.646Z,15.15
2024-05-09T08:37:10.155Z,15.17
2024-05-09T08:39:46.920Z,15.17
2024-05-09T08:42:23.428Z,15.27
2024-05-09T08:44:54.837Z,15.38
2024-05-09T08:47:27.366Z,15.54
2024-05-09T08:50:01.623Z,15.62
2024-05-09T08:52:33.158Z,15.54
2024-05-09T08:55:04.923Z,15.61
2024-05-09T08:57:37.137Z,15.65
2024-05-09T09:00:14.864Z,15.84
2024-05-09T09:02:50.272Z,15.86
2024-05-09T09:05:24.789Z,15.94
2024-05-09T09:07:56.163Z,16.00
2024-05-09T09:10:32.421Z,16.19
2024-05-09T09:13:06.816Z,16.31
2024-05-09T09:15:49.149Z,16.39
2024-05-09T09:18:20.916Z,16.37
2024-05-09T09:21:10.082Z,16.32
2024-05-09T09:23:52.385Z,16.27
2024-05-09T09:26:24.372Z,16.25
2024-05-09T09:29:02.520Z,16.43
2024-05-09T09:31:34.054Z,16.49
2024-05-09T09:34:09.496Z,16.67
2024-05-09T09:36:41.652Z,16.72
2024-05-09T09:39:17.469Z,16.85
2024-05-09T09:41:50.035Z,17.01
2024-05-09T09:44:22.279Z,16.87
2024-05-09T09:46:57.093Z,16.93
2024-05-09T09:49:30.564Z,17.11
2024-05-09T09:52:02.872Z,17.20
2024-05-09T09:54:34.479Z,17.11
2024-05-09T09:57:07.792Z,17.31
2024-05-09T09:59:43.109Z,17.40
2024-05-09T10:02:14.715Z,17.56
2024-05-09T10:04:46.377Z,17.56
2024-05-09T10:07:19.850Z,17.55
2024-05-09T10:09:58.635Z,17.50
2024-05-09T10:12:30.064Z,17.48
2024-05-09T10:15:07.016Z,17.51
2024-05-09T10:17:38.341Z,17.67
2024-05-09T10:20:18.343Z,17.76
2024-05-09T10:22:53.336Z,18.02
2024-05-09T10:25:25.326Z,18.05
2024-05-09T10:27:58.533Z,18.07
2024-05-09T10:30:35.771Z,18.11
2024-05-09T10:33:12.066Z,18.14
2024-05-09T10:36:01.675Z,18.10
2024-05-09T10:38:38.661Z,17.81
2024-05-09T10:41:11.093Z,17.68
2024-05-09T10:43:43.430Z,17.62
2024-05-09T10:46:14.748Z,17.89
2024-05-09T10:48:48.281Z,18.07
2024-05-09T10:51:21.228Z,18.11
2024-05-09T10:53:52.916Z,18.00
2024-05-09T10:56:24.611Z,17.98
2024-05-09T10:58:56.224Z,18.19
2024-05-09T11:01:28.255Z,18.31
2024-05-09T11:04:01.382Z,17.94
2024-05-09T11:06:34.799Z,18.14
2024-05-09T11:09:06.750Z,18.47
2024-05-09T11:11:38.366Z,18.77
2024-05-09T11:14:15.182Z,19.03
2024-05-09T11:16:46.364Z,19.25
2024-05-09T11:19:19.431Z,19.42
2024-05-09T11:21:54.161Z,19.67
2024-05-09T11:24:25.765Z,19.67
2024-05-09T11:26:57.668Z,19.50
2024-05-09T11:29:40.090Z,19.50
2024-05-09T11:32:13.338Z,19.62
2024-05-09T11:34:44.843Z,19.74
2024-05-09T11:37:16.548Z,19.50
2024-05-09T11:39:48.538Z,19.42
2024-05-09T11:42:20.483Z,19.62
2024-05-09T11:44:51.995Z,19.75
2024-05-09T11:47:23.383Z,19.89
2024-05-09T11:49:56.013Z,20.05
2024-05-09T11:52:27.829Z,20.35
2024-05-09T11:54:59.303Z,20.31
2024-05-09T11:57:31.137Z,20.25
2024-05-09T12:00:03.216Z,20.48
2024-05-09T12:02:36.127Z,20.42
2024-05-09T12:05:08.246Z,20.28
2024-05-09T12:07:39.705Z,20.48
2024-05-09T12:10:16.610Z,20.48
2024-05-09T12:12:51.177Z,20.33
2024-05-09T12:15:22.808Z,20.38
2024-05-09T12:17:55.866Z,20.53
2024-05-09T12:20:35.817Z,20.60
2024-05-09T12:23:10.837Z,20.59
2024-05-09T12:25:42.675Z,20.53
2024-05-09T12:28:14.346Z,20.58
2024-05-09T12:30:46.153Z,20.56
2024-05-09T12:33:19.535Z,20.58
2024-05-09T12:35:51.579Z,20.35
2024-05-09T12:38:23.116Z,20.00
2024-05-09T12:40:54.814Z,20.01
2024-05-09T12:43:26.671Z,20.05
2024-05-09T12:45:58.259Z,20.25
2024-05-09T12:48:30.568Z,20.34
2024-05-09T12:51:02.051Z,20.42
2024-05-09T12:53:33.525Z,20.44
2024-05-09T12:56:06.652Z,20.29
2024-05-09T12:58:39.645Z,20.35
2024-05-09T13:01:10.900Z,20.44
2024-05-09T13:03:42.418Z,20.53
2024-05-09T13:06:14.375Z,20.51
2024-05-09T13:08:45.648Z,20.50
2024-05-09T13:11:17.037Z,20.55
2024-05-09T13:13:48.255Z,20.70
2024-05-09T13:16:19.681Z,20.83
2024-05-09T13:18:51.226Z,20.95
2024-05-09T13:21:22.994Z,21.01
2024-05-09T13:23:54.882Z,21.06
2024-05-09T13:26:25.674Z,21.09
2024-05-09T13:28:57.830Z,21.06
2024-05-09T13:31:32.059Z,20.98
2024-05-09T13:34:03.486Z,20.88
2024-05-09T13:36:34.904Z,20.82
2024-05-09T13:39:09.128Z,20.92
2024-05-09T13:41:40.485Z,20.99
2024-05-09T13:44:11.948Z,21.04
2024-05-09T13:46:43.220Z,21.19
2024-05-09T13:49:16.453Z,21.37
2024-05-09T13:51:47.766Z,21.38
2024-05-09T13:54:21.894Z,21.51
2024-05-09T13:56:54.093Z,21.58
2024-05-09T13:59:25.362Z,21.74
2024-05-09T14:01:56.739Z,21.90
2024-05-09T14:04:28.583Z,21.93
2024-05-09T14:07:00.120Z,22.03
2024-05-09T14:09:31.574Z,22.15
2024-05-09T14:12:03.027Z,22.07
2024-05-09T14:14:34.763Z,21.89
2024-05-09T14:17:06.492Z,22.10
2024-05-09T14:19:37.774Z,22.17
2024-05-09T14:22:09.411Z,22.08
2024-05-09T14:24:40.859Z,22.20
2024-05-09T14:27:12.298Z,22.24
2024-05-09T14:29:43.741Z,22.39
2024-05-09T14:32:15.559Z,22.50
2024-05-09T14:34:47.399Z,22.48
2024-05-09T14:37:18.798Z,22.64
2024-05-09T14:39:50.245Z,22.80
2024-05-09T14:42:22.368Z,22.79
2024-05-09T14:44:53.503Z,22.71
2024-05-09T14:47:24.859Z,22.51
2024-05-09T14:49:56.245Z,22.62
2024-05-09T14:52:27.496Z,22.87
2024-05-09T14:55:00.710Z,23.09
2024-05-09T14:57:32.851Z,23.29
2024-05-09T15:00:08.970Z,23.52
2024-05-09T15:02:42.966Z,23.55
2024-05-09T15:05:14.563Z,23.69
2024-05-09T15:07:46.571Z,23.67
2024-05-09T15:10:26.547Z,23.79
2024-05-09T15:13:05.096Z,23.54
2024-05-09T15:15:36.651Z,23.81
2024-05-09T15:18:08.888Z,23.85
2024-05-09T15:20:41.037Z,24.05
2024-05-09T15:23:12.377Z,24.12
2024-05-09T15:25:45.148Z,24.10
2024-05-09T15:28:16.882Z,24.36
2024-05-09T15:30:48.425Z,24.31
2024-05-09T15:33:20.149Z,24.26
2024-05-09T15:35:53.272Z,24.25
2024-05-09T15:38:26.108Z,24.07
2024-05-09T15:40:57.449Z,24.17
2024-05-09T15:43:29.038Z,24.27
2024-05-09T15:46:00.751Z,24.14
2024-05-09T15:48:32.355Z,23.67
2024-05-09T15:51:03.709Z,23.78
2024-05-09T15:53:35.771Z,23.93
2024-05-09T15:56:10.729Z,23.90
2024-05-09T15:58:42.344Z,23.45
2024-05-09T16:01:14.744Z,23.18
2024-05-09T16:03:46.753Z,23.20
2024-05-09T16:06:19.377Z,23.49
2024-05-09T16:08:50.954Z,23.24
2024-05-09T16:11:23.261Z,23.29
2024-05-09T16:13:55.163Z,23.71
2024-05-09T16:16:27.261Z,24.08
2024-05-09T16:18:59.121Z,24.38
2024-05-09T16:21:30.521Z,24.82
2024-05-09T16:24:02.208Z,25.27
2024-05-09T16:26:33.683Z,25.70
2024-05-09T16:29:05.400Z,25.71
2024-05-09T16:31:37.761Z,26.14
2024-05-09T16:34:10.478Z,26.53
2024-05-09T16:36:43.581Z,26.76
2024-05-09T16:39:14.902Z,26.97
2024-05-09T16:41:46.432Z,27.23
2024-05-09T16:44:17.701Z,27.33
2024-05-09T16:46:49.049Z,26.98
2024-05-09T16:49:20.798Z,26.66
2024-05-09T16:51:52.204Z,25.94
2024-05-09T16:54:23.518Z,25.11
2024-05-09T16:56:55.007Z,24.32
2024-05-09T16:59:26.518Z,23.68
2024-05-09T17:01:58.805Z,23.29
2024-05-09T17:04:29.493Z,22.77
2024-05-09T17:07:01.613Z,22.71
2024-05-09T17:09:32.286Z,22.57
2024-05-09T17:12:04.231Z,22.37
2024-05-09T17:14:35.423Z,22.17
2024-05-09T17:17:09.051Z,22.08
2024-05-09T17:19:42.170Z,21.92
2024-05-09T17:22:13.820Z,21.69
2024-05-09T17:24:45.188Z,21.66
2024-05-09T17:27:24.866Z,21.64
2024-05-09T17:30:17.933Z,21.65
2024-05-09T17:33:14.042Z,21.51
2024-05-09T17:36:04.758Z,21.37
2024-05-09T17:38:54.514Z,21.30
2024-05-09T17:41:44.189Z,21.14
2024-05-09T17:44:33.446Z,21.00
2024-05-09T17:47:23.291Z,20.97
2024-05-09T17:49:59.232Z,20.77
2024-05-09T17:52:30.569Z,20.49
2024-05-09T17:55:02.014Z,20.45
2024-05-09T17:57:33.796Z,20.49
2024-05-09T18:00:11.128Z,20.41
2024-05-09T18:02:46.425Z,20.41
2024-05-09T18:05:17.953Z,20.34
2024-05-09T18:07:49.581Z,20.28
2024-05-09T18:10:26.001Z,20.12
2024-05-09T18:13:05.198Z,19.95
2024-05-09T18:15:37.189Z,19.86
2024-05-09T18:18:19.796Z,19.80
2024-05-09T18:20:52.324Z,19.65
2024-05-09T18:23:24.014Z,19.45
2024-05-09T18:25:57.094Z,19.38
2024-05-09T18:28:30.504Z,19.26
2024-05-09T18:31:02.499Z,19.13
2024-05-09T18:33:35.568Z,19.01
2024-05-09T18:36:10.099Z,18.86
2024-05-09T18:38:42.207Z,18.83
2024-05-09T18:41:13.484Z,18.78
2024-05-09T18:43:45.613Z,18.76
2024-05-09T18:46:20.075Z,18.70
2024-05-09T18:48:51.916Z,18.60
2024-05-09T18:51:23.570Z,18.56
2024-05-09T18:53:55.517Z,18.47
2024-05-09T18:56:27.976Z,18.39
2024-05-09T18:58:58.614Z,18.28
2024-05-09T19:01:30.484Z,18.15
2024-05-09T19:04:02.486Z,18.07
2024-05-09T19:06:36.035Z,17.96
2024-05-09T19:09:07.329Z,17.81
2024-05-09T19:11:39.812Z,17.63
2024-05-09T19:14:09.915Z,17.54
2024-05-09T19:16:42.067Z,17.61
2024-05-09T19:19:15.417Z,17.55
2024-05-09T19:21:47.223Z,17.50
2024-05-09T19:24:18.660Z,17.46
2024-05-09T19:26:52.803Z,17.37
2024-05-09T19:29:24.880Z,17.36
2024-05-09T19:31:56.945Z,17.27
2024-05-09T19:34:28.519Z,17.22
2024-05-09T19:37:02.389Z,17.08
2024-05-09T19:39:34.388Z,16.97
2024-05-09T19:42:06.856Z,17.02
2024-05-09T19:44:38.262Z,16.96
2024-05-09T19:47:09.971Z,16.92
2024-05-09T19:49:42.359Z,16.89
2024-05-09T19:52:21.340Z,16.85
2024-05-09T19:55:01.281Z,16.80
2024-05-09T19:57:33.137Z,16.73
2024-05-09T20:00:06.063Z,16.71
2024-05-09T20:02:40.976Z,16.66
2024-05-09T20:05:13.182Z,16.68
2024-05-09T20:07:45.829Z,16.65
2024-05-09T20:10:23.767Z,16.66
2024-05-09T20:12:58.557Z,16.62
2024-05-09T20:15:30.870Z,16.53
2024-05-09T20:18:06.122Z,16.40
2024-05-09T20:20:42.405Z,16.27
2024-05-09T20:23:15.922Z,16.18
2024-05-09T20:25:47.183Z,16.04
2024-05-09T20:28:19.149Z,15.81
2024-05-09T20:30:52.144Z,15.86
2024-05-09T20:33:23.612Z,15.82
2024-05-09T20:35:59.374Z,15.74
2024-05-09T20:38:31.886Z,15.72
2024-05-09T20:41:03.971Z,15.73
2024-05-09T20:43:35.283Z,15.73
2024-05-09T20:46:06.886Z,15.76
2024-05-09T20:48:38.374Z,15.81
2024-05-09T20:51:10.537Z,15.77
2024-05-09T20:53:42.472Z,15.71
2024-05-09T20:56:13.968Z,15.72
2024-05-09T20:58:45.518Z,15.70
2024-05-09T21:01:17.104Z,15.62
2024-05-09T21:03:49.280Z,15.69
2024-05-09T21:06:22.070Z,15.74
2024-05-09T21:08:53.616Z,15.70
2024-05-09T21:11:25.492Z,15.70
2024-05-09T21:13:57.186Z,15.63
2024-05-09T21:16:28.855Z,15.57
2024-05-09T21:19:00.482Z,15.43
2024-05-09T21:21:39.042Z,15.35
2024-05-09T21:24:10.538Z,15.28
2024-05-09T21:26:42.064Z,15.31
2024-05-09T21:29:13.846Z,15.31
2024-05-09T21:31:45.409Z,15.17
2024-05-09T21:34:16.989Z,14.92
2024-05-09T21:36:48.974Z,14.75
2024-05-09T21:39:24.071Z,14.68
2024-05-09T21:42:01.410Z,14.67
2024-05-09T21:44:32.905Z,14.72
2024-05-09T21:47:06.095Z,14.65
2024-05-09T21:49:47.732Z,14.58
2024-05-09T21:52:31.038Z,14.26
2024-05-09T21:55:02.628Z,14.24
2024-05-09T21:57:34.490Z,14.34
2024-05-09T22:00:58.910Z,14.27
2024-05-09T22:04:07.240Z,14.33
2024-05-09T22:06:39.001Z,14.35
2024-05-09T22:09:10.375Z,14.33
2024-05-09T22:11:41.787Z,14.41
2024-05-09T22:14:13.403Z,14.29
2024-05-09T22:16:44.931Z,14.25
2024-05-09T22:19:16.853Z,14.25
2024-05-09T22:21:48.864Z,14.17
2024-05-09T22:24:20.712Z,14.21
2024-05-09T22:26:54.915Z,14.27
2024-05-09T22:29:26.971Z,14.33
2024-05-09T22:31:58.990Z,14.40
2024-05-09T22:34:31.248Z,14.39
2024-05-09T22:37:03.446Z,14.19
2024-05-09T22:39:35.567Z,14.04
2024-05-09T22:42:07.871Z,14.04
2024-05-09T22:44:39.702Z,13.93
2024-05-09T22:47:11.686Z,13.80
2024-05-09T22:49:43.533Z,13.78
2024-05-09T22:52:15.063Z,13.82
2024-05-09T22:54:46.516Z,13.89
2024-05-09T22:57:17.708Z,13.83
2024-05-09T22:59:49.008Z,13.83
2024-05-09T23:02:20.493Z,13.79
2024-05-09T23:04:52.009Z,13.71
2024-05-09T23:07:23.367Z,13.63
2024-05-09T23:09:54.745Z,13.66
2024-05-09T23:12:26.036Z,13.66
2024-05-09T23:14:57.310Z,13.67
2024-05-09T23:17:28.669Z,13.68
2024-05-09T23:20:00.282Z,13.75
2024-05-09T23:22:31.882Z,13.83
2024-05-09T23:25:03.267Z,13.83
2024-05-09T23:27:35.170Z,13.75
2024-05-09T23:30:12.100Z,13.61
2024-05-09T23:32:43.762Z,13.57
2024-05-09T23:35:15.349Z,13.59
2024-05-09T23:37:46.616Z,13.69
2024-05-09T23:40:19.151Z,13.67
2024-05-09T23:42:54.022Z,13.71
2024-05-09T23:45:25.576Z,13.58
2024-05-09T23:47:56.842Z,13.72
2024-05-09T23:50:34.496Z,13.65
2024-05-09T23:53:10.172Z,13.54
2024-05-09T23:55:42.529Z,13.54
2024-05-09T23:58:13.901Z,13.60
